LIPE

Bologna Guglielmo Marconi Airport

Bologna, Italy
TAF LIPE 200500Z 2006/2106 VRB04KT 8000 BKN020
Issued Valid From Valid To
Jan-20 @ 05:00 UTC
(6 hours ago)
Jan-20 @ 06:00 UTC
(5 hours ago)
Jan-21 @ 06:00 UTC
(in 19 hours)
Jan-20 @ 06:00 to Jan-21 @ 06:00
TAF LIPE 200500Z 2006/2106 VRB04KT 8000 BKN020
Wind Visibility Clouds
Variable at 4 knots 7,998 meters
  • Broken at 2,000' AGL
TAF LIPE 200500Z 2006/2106 VRB04KT 8000 BKN020
Issued Jan-20 @ 05:00 UTC
(6 hours ago)
Valid From Jan-20 @ 06:00 UTC
(5 hours ago)
Valid To Jan-21 @ 06:00 UTC
(in 19 hours)
Jan-20 @ 06:00 - Jan-21 @ 06:00
Wind Visibility
Variable at 4 knots 7,998 meters
Clouds
  • Broken at 2,000' AGL